createdAt,value
2018-09-08T00:00:11.021Z,274.33
2018-09-08T00:02:54.021Z,161.07
2018-09-08T00:05:37.013Z,100.23
2018-09-08T00:08:19.547Z,81.90
2018-09-08T00:11:02.411Z,127.07
2018-09-08T00:13:45.405Z,197.17
2018-09-08T00:16:33.523Z,189.83
2018-09-08T00:19:21.488Z,146.13
2018-09-08T00:22:09.358Z,145.37
2018-09-08T00:24:57.371Z,152.10
2018-09-08T00:27:42.807Z,160.77
2018-09-08T00:30:25.710Z,249.17
2018-09-08T00:33:08.904Z,288.90
2018-09-08T00:35:51.800Z,300.20
2018-09-08T00:38:34.742Z,206.70
2018-09-08T00:41:17.591Z,204.07
2018-09-08T00:44:00.342Z,163.43
2018-09-08T00:46:43.012Z,69.53
2018-09-08T00:49:26.069Z,39.47
2018-09-08T00:52:09.081Z,73.27
2018-09-08T00:54:51.684Z,85.27
2018-09-08T00:57:34.478Z,235.87
2018-09-08T01:00:17.183Z,142.57
2018-09-08T01:03:00.485Z,106.27
2018-09-08T01:05:42.935Z,93.77
2018-09-08T01:08:26.361Z,156.43
2018-09-08T01:11:09.611Z,194.43
2018-09-08T01:13:52.641Z,302.33
2018-09-08T01:16:35.366Z,202.40
2018-09-08T01:19:18.239Z,147.47
2018-09-08T01:22:01.184Z,551.13
2018-09-08T01:24:44.213Z,163.97
2018-09-08T01:27:26.946Z,94.10
2018-09-08T01:30:09.517Z,117.73
2018-09-08T01:32:52.516Z,103.27
2018-09-08T01:35:35.237Z,34.80
2018-09-08T01:38:17.941Z,28.33
2018-09-08T01:41:01.013Z,25.77
2018-09-08T01:43:43.660Z,22.70
2018-09-08T01:46:26.350Z,37.00
2018-09-08T01:49:09.206Z,26.30
2018-09-08T01:51:52.141Z,25.03
2018-09-08T01:54:35.758Z,23.33
2018-09-08T01:57:18.988Z,32.40
2018-09-08T02:00:01.658Z,30.80
2018-09-08T02:02:44.379Z,20.30
2018-09-08T02:05:27.227Z,28.57
2018-09-08T02:08:10.125Z,24.40
2018-09-08T02:10:52.996Z,22.70
2018-09-08T02:13:35.464Z,26.80
2018-09-08T02:16:18.848Z,17.70
2018-09-08T02:19:01.731Z,35.47
2018-09-08T02:21:45.329Z,29.43
2018-09-08T02:24:27.910Z,20.80
2018-09-08T02:27:10.837Z,15.07
2018-09-08T02:29:53.728Z,10.17
2018-09-08T02:32:36.283Z,17.50
2018-09-08T02:35:19.429Z,15.13
2018-09-08T02:38:02.424Z,19.30
2018-09-08T02:40:44.828Z,17.80
2018-09-08T02:43:27.791Z,23.27
2018-09-08T02:46:10.594Z,16.00
2018-09-08T02:48:54.001Z,19.53
2018-09-08T02:51:34.762Z,14.37
2018-09-08T02:54:16.167Z,12.97
2018-09-08T02:56:57.638Z,19.23
2018-09-08T02:59:39.302Z,21.70
2018-09-08T03:02:20.619Z,27.47
2018-09-08T03:05:01.643Z,18.70
2018-09-08T03:07:43.068Z,16.83
2018-09-08T03:10:24.724Z,16.73
2018-09-08T03:13:06.295Z,29.53
2018-09-08T03:15:47.854Z,19.50
2018-09-08T03:18:29.797Z,23.10
2018-09-08T03:21:11.525Z,22.93
2018-09-08T03:23:52.735Z,22.80
2018-09-08T03:26:35.436Z,16.80
2018-09-08T03:29:17.317Z,22.67
2018-09-08T03:31:58.962Z,32.40
2018-09-08T03:34:40.706Z,25.33
2018-09-08T03:37:22.178Z,13.23
2018-09-08T03:40:03.762Z,17.70
2018-09-08T03:42:45.383Z,17.27
2018-09-08T03:45:26.809Z,20.50
2018-09-08T03:48:08.324Z,19.63
2018-09-08T03:50:49.852Z,26.43
2018-09-08T03:53:31.706Z,12.50
2018-09-08T03:56:12.920Z,18.20
2018-09-08T03:58:54.110Z,17.83
2018-09-08T04:01:35.502Z,13.13
2018-09-08T04:04:18.613Z,16.50
2018-09-08T04:07:01.461Z,12.60
2018-09-08T04:09:44.140Z,16.40
2018-09-08T04:12:27.364Z,13.80
2018-09-08T04:15:10.886Z,22.73
2018-09-08T04:17:53.916Z,13.67
2018-09-08T04:20:37.290Z,11.83
2018-09-08T04:23:19.987Z,11.67
2018-09-08T04:26:03.005Z,15.37
2018-09-08T04:28:46.213Z,13.67
2018-09-08T04:31:29.131Z,11.03
2018-09-08T04:34:12.216Z,15.73
2018-09-08T04:36:55.033Z,23.37
2018-09-08T04:39:38.767Z,14.10
2018-09-08T04:42:21.739Z,9.80
2018-09-08T04:45:04.969Z,15.57
2018-09-08T04:47:47.369Z,13.40
2018-09-08T04:50:30.016Z,16.20
2018-09-08T04:53:12.693Z,15.33
2018-09-08T04:55:55.678Z,14.03
2018-09-08T04:58:38.261Z,22.23
2018-09-08T05:01:21.401Z,12.93
2018-09-08T05:04:04.355Z,25.17
2018-09-08T05:06:47.909Z,20.20
2018-09-08T05:09:31.214Z,16.77
2018-09-08T05:12:13.712Z,18.50
2018-09-08T05:14:56.790Z,20.43
2018-09-08T05:17:39.544Z,14.77
2018-09-08T05:20:22.518Z,16.47
2018-09-08T05:23:05.447Z,16.70
2018-09-08T05:25:48.258Z,13.00
2018-09-08T05:28:31.276Z,17.30
2018-09-08T05:31:13.892Z,16.77
2018-09-08T05:33:56.790Z,13.77
2018-09-08T05:36:39.555Z,23.97
2018-09-08T05:39:22.847Z,24.43
2018-09-08T05:42:05.783Z,24.17
2018-09-08T05:44:49.389Z,14.37
2018-09-08T05:47:32.634Z,15.20
2018-09-08T05:50:15.799Z,12.23
2018-09-08T05:52:59.061Z,18.53
2018-09-08T05:55:41.828Z,13.83
2018-09-08T05:58:24.748Z,17.13
2018-09-08T06:01:07.746Z,20.50
2018-09-08T06:03:50.444Z,13.40
2018-09-08T06:06:33.386Z,18.37
2018-09-08T06:09:15.993Z,23.90
2018-09-08T06:11:59.343Z,13.87
2018-09-08T06:14:42.482Z,12.17
2018-09-08T06:17:25.405Z,19.00
2018-09-08T06:20:08.013Z,14.40
2018-09-08T06:22:51.325Z,11.40
2018-09-08T06:25:33.984Z,19.27
2018-09-08T06:28:17.092Z,20.50
2018-09-08T06:30:59.787Z,16.33
2018-09-08T06:33:43.594Z,16.37
2018-09-08T06:36:26.964Z,14.13
2018-09-08T06:39:13.325Z,11.10
2018-09-08T06:41:56.672Z,13.50
2018-09-08T06:44:39.562Z,14.03
2018-09-08T06:47:22.490Z,11.37
2018-09-08T06:50:05.393Z,13.13
2018-09-08T06:52:48.580Z,10.90
2018-09-08T06:55:30.996Z,9.93
2018-09-08T06:58:13.792Z,11.30
2018-09-08T07:00:56.608Z,18.80
2018-09-08T07:03:39.483Z,16.63
2018-09-08T07:06:22.348Z,7.03
2018-09-08T07:09:07.270Z,16.13
2018-09-08T07:11:50.338Z,10.10
2018-09-08T07:14:33.100Z,20.10
2018-09-08T07:17:16.587Z,21.90
2018-09-08T07:19:59.856Z,13.80
2018-09-08T07:22:42.635Z,11.57
2018-09-08T07:25:25.381Z,12.90
2018-09-08T07:28:08.350Z,15.43
2018-09-08T07:30:51.471Z,11.20
2018-09-08T07:33:34.318Z,12.80
2018-09-08T07:36:17.077Z,16.43
2018-09-08T07:38:59.887Z,10.00
2018-09-08T07:41:42.726Z,10.80
2018-09-08T07:44:25.609Z,10.63
2018-09-08T07:47:08.679Z,13.37
2018-09-08T07:49:51.070Z,8.07
2018-09-08T07:52:33.855Z,9.50
2018-09-08T07:55:16.875Z,8.75
2018-09-08T07:57:59.458Z,9.05
2018-09-08T08:00:42.199Z,8.60
2018-09-08T08:03:24.933Z,7.03
2018-09-08T08:06:07.503Z,6.85
2018-09-08T08:08:50.191Z,5.50
2018-09-08T08:11:33.008Z,11.40
2018-09-08T08:14:16.587Z,19.87
2018-09-08T08:16:59.579Z,7.25
2018-09-08T08:19:42.578Z,10.03
2018-09-08T08:22:25.402Z,11.03
2018-09-08T08:25:08.141Z,13.88
2018-09-08T08:27:50.948Z,8.95
2018-09-08T08:30:33.838Z,7.55
2018-09-08T08:33:16.485Z,11.00
2018-09-08T08:35:59.508Z,9.50
2018-09-08T08:38:42.153Z,7.53
2018-09-08T08:41:25.684Z,8.33
2018-09-08T08:44:08.529Z,7.25
2018-09-08T08:46:51.529Z,8.70
2018-09-08T08:49:34.576Z,8.13
2018-09-08T08:52:28.195Z,9.03
2018-09-08T08:55:09.167Z,12.23
2018-09-08T08:57:52.437Z,8.13
2018-09-08T09:00:35.326Z,10.50
2018-09-08T09:03:18.480Z,12.05
2018-09-08T09:06:02.064Z,14.18
2018-09-08T09:08:44.898Z,6.22
2018-09-08T09:11:27.972Z,10.03
2018-09-08T09:14:11.526Z,6.65
2018-09-08T09:16:53.977Z,19.52
2018-09-08T09:19:47.479Z,27.00
2018-09-08T09:22:41.178Z,16.02
2018-09-08T09:25:24.068Z,11.10
2018-09-08T09:28:06.885Z,10.85
2018-09-08T09:30:49.607Z,12.20
2018-09-08T09:33:32.473Z,7.83
2018-09-08T09:36:15.337Z,6.90
2018-09-08T09:38:58.093Z,10.53
2018-09-08T09:41:43.197Z,10.15
2018-09-08T09:44:26.149Z,10.08
2018-09-08T09:47:08.953Z,9.00
2018-09-08T09:49:52.064Z,7.37
2018-09-08T09:52:34.986Z,8.95
2018-09-08T09:55:17.951Z,6.97
2018-09-08T09:58:01.029Z,6.33
2018-09-08T10:00:49.218Z,10.80
2018-09-08T10:03:32.963Z,12.28
2018-09-08T10:06:16.777Z,10.78
2018-09-08T10:09:00.097Z,7.53
2018-09-08T10:11:43.041Z,8.63
2018-09-08T10:14:26.259Z,6.97
2018-09-08T10:17:17.879Z,8.28
2018-09-08T10:20:00.392Z,8.05
2018-09-08T10:22:43.627Z,11.53
2018-09-08T10:25:26.230Z,8.33
2018-09-08T10:28:08.881Z,10.55
2018-09-08T10:30:52.578Z,6.00
2018-09-08T10:33:35.771Z,9.28
2018-09-08T10:36:18.777Z,8.60
2018-09-08T10:39:01.350Z,6.78
2018-09-08T10:41:44.434Z,7.05
2018-09-08T10:44:27.167Z,8.03
2018-09-08T10:47:10.492Z,11.75
2018-09-08T10:49:54.727Z,8.65
2018-09-08T10:52:46.945Z,8.30
2018-09-08T10:55:29.551Z,8.70
2018-09-08T10:58:12.334Z,14.63
2018-09-08T11:00:55.159Z,7.90
2018-09-08T11:03:38.486Z,5.55
2018-09-08T11:06:21.024Z,6.10
2018-09-08T11:09:04.928Z,10.35
2018-09-08T11:11:47.718Z,8.90
2018-09-08T11:14:30.522Z,7.25
2018-09-08T11:17:13.300Z,9.38
2018-09-08T11:19:55.947Z,4.72
2018-09-08T11:22:39.030Z,11.57
2018-09-08T11:25:21.749Z,7.33
2018-09-08T11:28:04.600Z,4.58
2018-09-08T11:30:48.013Z,12.07
2018-09-08T11:33:31.545Z,7.58
2018-09-08T11:36:14.202Z,5.60
2018-09-08T11:38:57.126Z,7.25
2018-09-08T11:41:40.625Z,10.30
2018-09-08T11:44:24.248Z,4.70
2018-09-08T11:47:07.537Z,5.45
2018-09-08T11:49:50.944Z,7.75
2018-09-08T11:52:33.528Z,13.40
2018-09-08T11:55:17.715Z,8.80
2018-09-08T11:58:00.820Z,5.72
2018-09-08T12:00:44.323Z,7.08
2018-09-08T12:03:27.738Z,12.70
2018-09-08T12:06:10.755Z,7.30
2018-09-08T12:08:53.729Z,10.05
2018-09-08T12:11:36.461Z,13.88
2018-09-08T12:14:19.330Z,15.48
2018-09-08T12:17:02.069Z,13.55
2018-09-08T12:19:44.527Z,9.60
2018-09-08T12:22:27.920Z,6.08
2018-09-08T12:25:11.598Z,7.67
2018-09-08T12:27:54.880Z,4.97
2018-09-08T12:30:37.912Z,19.00
2018-09-08T12:33:20.856Z,6.50
2018-09-08T12:36:04.360Z,7.47
2018-09-08T12:38:47.331Z,8.73
2018-09-08T12:41:30.501Z,9.75
2018-09-08T12:44:13.026Z,8.30
2018-09-08T12:46:56.000Z,13.93
2018-09-08T12:49:39.355Z,6.40
2018-09-08T12:52:22.879Z,14.60
2018-09-08T12:55:06.224Z,10.18
2018-09-08T12:57:49.023Z,11.22
2018-09-08T13:00:31.938Z,10.75
2018-09-08T13:03:14.607Z,10.95
2018-09-08T13:05:58.111Z,6.25
2018-09-08T13:08:41.580Z,7.40
2018-09-08T13:11:23.994Z,10.30
2018-09-08T13:14:07.341Z,8.10
2018-09-08T13:16:49.731Z,9.18
2018-09-08T13:19:32.744Z,12.93
2018-09-08T13:22:15.263Z,7.50
2018-09-08T13:24:58.412Z,10.32
2018-09-08T13:27:41.217Z,8.65
2018-09-08T13:30:23.876Z,6.40
2018-09-08T13:33:07.088Z,7.97
2018-09-08T13:35:50.212Z,9.65
2018-09-08T13:38:33.049Z,11.95
2018-09-08T13:41:16.041Z,12.60
2018-09-08T13:43:58.484Z,11.10
2018-09-08T13:46:41.494Z,9.08
2018-09-08T13:49:24.273Z,8.13
2018-09-08T13:52:07.298Z,12.10
2018-09-08T13:54:49.938Z,6.87
2018-09-08T13:57:32.867Z,8.00
2018-09-08T14:00:15.581Z,9.43
2018-09-08T14:02:58.224Z,15.78
2018-09-08T14:05:41.047Z,13.68
2018-09-08T14:08:23.857Z,9.15
2018-09-08T14:11:06.861Z,17.45
2018-09-08T14:13:49.226Z,10.15
2018-09-08T14:16:32.185Z,15.40
2018-09-08T14:19:15.878Z,14.43
2018-09-08T14:21:58.767Z,12.55
2018-09-08T14:24:41.439Z,5.90
2018-09-08T14:27:24.436Z,9.50
2018-09-08T14:30:07.016Z,6.77
2018-09-08T14:32:50.245Z,7.45
2018-09-08T14:35:33.600Z,11.13
2018-09-08T14:38:16.439Z,12.88
2018-09-08T14:40:59.324Z,13.22
2018-09-08T14:43:42.426Z,9.20
2018-09-08T14:46:25.129Z,12.40
2018-09-08T14:49:08.403Z,12.85
2018-09-08T14:51:51.563Z,12.50
2018-09-08T14:54:34.254Z,11.83
2018-09-08T14:57:17.738Z,11.00
2018-09-08T15:00:00.964Z,11.30
2018-09-08T15:02:44.219Z,9.67
2018-09-08T15:05:26.900Z,22.97
2018-09-08T15:08:09.348Z,10.87
2018-09-08T15:10:51.898Z,7.62
2018-09-08T15:13:35.307Z,9.50
2018-09-08T15:16:18.473Z,15.33
2018-09-08T15:19:01.322Z,11.07
2018-09-08T15:21:44.078Z,9.07
2018-09-08T15:24:27.770Z,9.90
2018-09-08T15:27:11.009Z,12.20
2018-09-08T15:29:54.578Z,9.20
2018-09-08T15:32:37.914Z,9.50
2018-09-08T15:35:20.452Z,9.03
2018-09-08T15:38:02.990Z,18.43
2018-09-08T15:40:45.769Z,26.37
2018-09-08T15:43:28.696Z,11.60
2018-09-08T15:46:11.684Z,9.00
2018-09-08T15:48:54.164Z,11.10
2018-09-08T15:51:37.517Z,14.10
2018-09-08T15:54:20.922Z,9.50
2018-09-08T15:57:03.308Z,12.93
2018-09-08T15:59:46.442Z,9.03
2018-09-08T16:02:29.187Z,13.40
2018-09-08T16:05:11.806Z,9.27
2018-09-08T16:07:54.628Z,10.07
2018-09-08T16:10:38.221Z,9.97
2018-09-08T16:13:28.047Z,12.73
2018-09-08T16:16:11.120Z,10.87
2018-09-08T16:18:54.300Z,8.30
2018-09-08T16:21:37.758Z,9.37
2018-09-08T16:24:20.693Z,10.00
2018-09-08T16:27:03.419Z,13.63
2018-09-08T16:29:46.248Z,15.00
2018-09-08T16:32:28.949Z,10.37
2018-09-08T16:35:11.651Z,9.50
2018-09-08T16:37:54.342Z,12.27
2018-09-08T16:40:37.306Z,10.13
2018-09-08T16:43:19.928Z,13.10
2018-09-08T16:46:02.937Z,15.73
2018-09-08T16:48:45.825Z,10.53
2018-09-08T16:51:28.573Z,13.83
2018-09-08T16:54:11.300Z,8.53
2018-09-08T16:56:54.046Z,11.20
2018-09-08T16:59:36.975Z,13.77
2018-09-08T17:02:19.865Z,10.00
2018-09-08T17:05:02.491Z,12.20
2018-09-08T17:07:45.359Z,13.53
2018-09-08T17:10:28.117Z,9.00
2018-09-08T17:13:11.018Z,10.53
2018-09-08T17:15:54.230Z,7.50
2018-09-08T17:18:36.625Z,12.30
2018-09-08T17:21:19.240Z,7.53
2018-09-08T17:24:02.206Z,16.83
2018-09-08T17:26:44.962Z,14.70
2018-09-08T17:29:27.650Z,12.67
2018-09-08T17:32:10.389Z,15.27
2018-09-08T17:34:54.272Z,9.23
2018-09-08T17:37:36.800Z,10.73
2018-09-08T17:40:19.608Z,20.30
2018-09-08T17:43:03.074Z,10.23
2018-09-08T17:45:46.307Z,12.20
2018-09-08T17:48:29.031Z,7.20
2018-09-08T17:51:12.932Z,9.80
2018-09-08T17:53:55.761Z,11.77
2018-09-08T17:56:38.569Z,13.67
2018-09-08T17:59:21.416Z,9.50
2018-09-08T18:02:04.403Z,16.57
2018-09-08T18:04:47.009Z,10.80
2018-09-08T18:07:29.921Z,9.43
2018-09-08T18:10:13.035Z,18.30
2018-09-08T18:12:55.926Z,8.97
2018-09-08T18:15:38.361Z,16.63
2018-09-08T18:18:21.780Z,11.77
2018-09-08T18:21:04.157Z,10.20
2018-09-08T18:23:47.146Z,10.23
2018-09-08T18:26:29.827Z,10.10
2018-09-08T18:29:12.593Z,8.67
2018-09-08T18:31:55.676Z,13.20
2018-09-08T18:34:38.169Z,13.07
2018-09-08T18:37:20.983Z,12.93
2018-09-08T18:40:03.865Z,9.77
2018-09-08T18:42:46.651Z,12.67
2018-09-08T18:45:29.385Z,13.50
2018-09-08T18:48:11.953Z,14.30
2018-09-08T18:50:54.409Z,9.17
2018-09-08T18:53:37.310Z,14.70
2018-09-08T18:56:21.448Z,12.57
2018-09-08T18:59:04.147Z,10.00
2018-09-08T19:01:47.046Z,17.17
2018-09-08T19:04:29.692Z,18.67
2018-09-08T19:07:12.555Z,11.07
2018-09-08T19:10:00.853Z,10.80
2018-09-08T19:12:45.058Z,13.90
2018-09-08T19:15:27.945Z,15.50
2018-09-08T19:18:11.077Z,10.10
2018-09-08T19:20:54.412Z,13.03
2018-09-08T19:23:37.432Z,23.00
2018-09-08T19:26:19.881Z,14.43
2018-09-08T19:29:09.080Z,12.50
2018-09-08T19:31:52.464Z,13.80
2018-09-08T19:34:35.094Z,15.27
2018-09-08T19:37:18.209Z,20.00
2018-09-08T19:40:01.108Z,14.30
2018-09-08T19:42:43.696Z,14.17
2018-09-08T19:45:26.248Z,11.50
2018-09-08T19:48:11.706Z,18.80
2018-09-08T19:50:54.781Z,17.73
2018-09-08T19:53:42.545Z,11.80
2018-09-08T19:56:30.971Z,12.50
2018-09-08T19:59:14.062Z,19.27
2018-09-08T20:01:56.971Z,17.83
2018-09-08T20:04:40.055Z,13.23
2018-09-08T20:07:23.233Z,12.97
2018-09-08T20:10:06.110Z,12.50
2018-09-08T20:12:49.029Z,19.93
2018-09-08T20:15:31.679Z,11.40
2018-09-08T20:18:14.552Z,20.43
2018-09-08T20:20:57.140Z,20.67
2018-09-08T20:23:40.074Z,14.17
2018-09-08T20:26:22.919Z,12.97
2018-09-08T20:29:05.490Z,15.70
2018-09-08T20:31:48.113Z,18.30
2018-09-08T20:34:31.469Z,14.80
2018-09-08T20:37:14.557Z,21.00
2018-09-08T20:39:57.379Z,17.07
2018-09-08T20:42:40.057Z,18.30
2018-09-08T20:45:23.449Z,11.17
2018-09-08T20:48:06.576Z,11.90
2018-09-08T20:50:49.302Z,12.60
2018-09-08T20:53:32.200Z,15.20
2018-09-08T20:56:15.204Z,26.07
2018-09-08T20:58:58.600Z,16.50
2018-09-08T21:01:41.098Z,12.40
2018-09-08T21:04:24.099Z,15.07
2018-09-08T21:07:07.881Z,15.83
2018-09-08T21:09:50.810Z,12.97
2018-09-08T21:12:35.501Z,14.77
2018-09-08T21:15:17.904Z,20.13
2018-09-08T21:18:01.231Z,14.30
2018-09-08T21:20:44.251Z,11.97
2018-09-08T21:23:26.636Z,10.47
2018-09-08T21:26:09.422Z,14.10
2018-09-08T21:28:52.980Z,20.50
2018-09-08T21:31:36.271Z,10.50
2018-09-08T21:34:19.272Z,18.93
2018-09-08T21:37:02.417Z,17.83
2018-09-08T21:39:45.846Z,21.47
2018-09-08T21:42:28.565Z,16.60
2018-09-08T21:45:11.144Z,14.40
2018-09-08T21:47:54.166Z,8.90
2018-09-08T21:50:37.000Z,12.50
2018-09-08T21:53:20.062Z,17.50
2018-09-08T21:56:02.751Z,14.50
2018-09-08T21:58:45.617Z,11.10
2018-09-08T22:01:29.130Z,9.17
2018-09-08T22:04:12.841Z,16.00
2018-09-08T22:06:55.138Z,12.97
2018-09-08T22:09:38.173Z,12.83
2018-09-08T22:12:20.670Z,19.77
2018-09-08T22:15:03.580Z,14.70
2018-09-08T22:17:46.879Z,13.13
2018-09-08T22:20:30.019Z,12.37
2018-09-08T22:23:13.330Z,13.47
2018-09-08T22:25:56.440Z,10.13
2018-09-08T22:28:39.170Z,12.10
2018-09-08T22:31:21.942Z,10.63
2018-09-08T22:34:04.718Z,11.50
2018-09-08T22:36:47.542Z,13.50
2018-09-08T22:39:30.783Z,16.17
2018-09-08T22:42:14.094Z,10.70
2018-09-08T22:44:57.289Z,11.87
2018-09-08T22:47:40.610Z,13.73
2018-09-08T22:50:23.493Z,15.17
2018-09-08T22:53:06.589Z,15.23
2018-09-08T22:55:49.046Z,8.53
2018-09-08T22:58:31.818Z,16.50
2018-09-08T23:01:15.264Z,19.30
2018-09-08T23:03:58.388Z,12.80
2018-09-08T23:06:41.295Z,14.33
2018-09-08T23:09:24.292Z,15.87
2018-09-08T23:12:07.657Z,9.13
2018-09-08T23:14:51.060Z,9.50
2018-09-08T23:17:33.482Z,9.83
2018-09-08T23:20:16.519Z,13.40
2018-09-08T23:22:58.871Z,12.40
2018-09-08T23:25:41.711Z,12.53
2018-09-08T23:28:25.103Z,24.20
2018-09-08T23:31:07.715Z,14.83
2018-09-08T23:33:50.561Z,8.53
2018-09-08T23:36:33.045Z,16.53
2018-09-08T23:39:15.711Z,8.57
2018-09-08T23:41:58.817Z,10.43
2018-09-08T23:44:41.637Z,17.70
2018-09-08T23:47:24.933Z,11.73
2018-09-08T23:50:07.564Z,17.40
2018-09-08T23:52:50.354Z,13.30
2018-09-08T23:55:38.857Z,12.33
2018-09-08T23:58:21.846Z,16.17
